createdAt,value
2024-01-03T00:00:31.471Z,10.95
2024-01-03T00:02:58.681Z,10.48
2024-01-03T00:05:36.803Z,10.70
2024-01-03T00:08:05.434Z,8.43
2024-01-03T00:10:48.150Z,6.22
2024-01-03T00:13:39.816Z,7.15
2024-01-03T00:16:07.845Z,6.28
2024-01-03T00:18:51.974Z,6.18
2024-01-03T00:21:26.425Z,8.68
2024-01-03T00:24:02.219Z,9.52
2024-01-03T00:26:30.597Z,8.18
2024-01-03T00:28:58.753Z,8.75
2024-01-03T00:31:25.524Z,7.03
2024-01-03T00:33:53.056Z,9.25
2024-01-03T00:36:19.824Z,11.23
2024-01-03T00:38:46.861Z,10.13
2024-01-03T00:41:16.809Z,11.10
2024-01-03T00:43:43.524Z,9.85
2024-01-03T00:46:10.659Z,9.35
2024-01-03T00:48:37.879Z,11.38
2024-01-03T00:51:05.327Z,10.07
2024-01-03T00:53:33.322Z,10.75
2024-01-03T00:56:01.457Z,14.15
2024-01-03T00:58:28.958Z,16.35
2024-01-03T01:00:55.793Z,17.77
2024-01-03T01:03:23.146Z,21.17
2024-01-03T01:05:50.311Z,22.27
2024-01-03T01:08:20.891Z,23.40
2024-01-03T01:10:48.019Z,24.52
2024-01-03T01:13:14.761Z,24.88
2024-01-03T01:15:41.951Z,22.45
2024-01-03T01:18:09.089Z,22.63
2024-01-03T01:20:36.257Z,20.83
2024-01-03T01:23:03.110Z,20.42
2024-01-03T01:25:29.842Z,19.50
2024-01-03T01:27:56.653Z,21.65
2024-01-03T01:30:23.496Z,20.05
2024-01-03T01:32:51.703Z,20.02
2024-01-03T01:35:19.091Z,23.52
2024-01-03T01:37:46.082Z,21.42
2024-01-03T01:40:13.298Z,20.25
2024-01-03T01:42:45.048Z,20.65
2024-01-03T01:45:12.006Z,20.92
2024-01-03T01:47:44.060Z,20.55
2024-01-03T01:50:11.892Z,20.45
2024-01-03T01:52:40.518Z,19.65
2024-01-03T01:55:09.501Z,17.77
2024-01-03T01:57:38.034Z,19.00
2024-01-03T02:00:05.681Z,17.15
2024-01-03T02:02:32.872Z,17.75
2024-01-03T02:04:59.953Z,15.23
2024-01-03T02:07:27.662Z,14.48
2024-01-03T02:09:54.622Z,15.93
2024-01-03T02:12:28.398Z,14.23
2024-01-03T02:14:55.511Z,14.15
2024-01-03T02:17:22.907Z,12.63
2024-01-03T02:19:50.329Z,14.05
2024-01-03T02:22:17.124Z,15.65
2024-01-03T02:24:43.807Z,13.88
2024-01-03T02:27:10.569Z,13.90
2024-01-03T02:29:37.373Z,13.45
2024-01-03T02:32:04.433Z,14.50
2024-01-03T02:34:31.339Z,16.75
2024-01-03T02:36:58.248Z,15.23
2024-01-03T02:39:25.070Z,14.93
2024-01-03T02:41:51.789Z,14.05
2024-01-03T02:44:18.544Z,14.45
2024-01-03T02:46:45.273Z,14.55
2024-01-03T02:49:12.093Z,14.38
2024-01-03T02:51:38.904Z,14.73
2024-01-03T02:54:05.734Z,15.35
2024-01-03T02:56:32.546Z,14.57
2024-01-03T02:58:59.274Z,13.00
2024-01-03T03:01:26.034Z,13.85
2024-01-03T03:03:52.796Z,13.63
2024-01-03T03:06:19.712Z,14.20
2024-01-03T03:08:46.553Z,14.07
2024-01-03T03:11:14.025Z,14.27
2024-01-03T03:13:40.774Z,13.43
2024-01-03T03:16:08.841Z,14.43
2024-01-03T03:18:35.857Z,29.60
2024-01-03T03:21:02.712Z,32.83
2024-01-03T03:23:29.549Z,19.83
2024-01-03T03:25:56.244Z,14.98
2024-01-03T03:28:23.390Z,14.65
2024-01-03T03:30:50.168Z,19.20
2024-01-03T03:33:17.693Z,18.85
2024-01-03T03:35:44.564Z,14.27
2024-01-03T03:38:11.404Z,13.45
2024-01-03T03:40:38.224Z,13.88
2024-01-03T03:43:05.041Z,13.35
2024-01-03T03:45:33.058Z,12.88
2024-01-03T03:48:00.012Z,14.10
2024-01-03T03:50:26.801Z,26.30
2024-01-03T03:52:53.477Z,13.43
2024-01-03T03:55:20.401Z,16.25
2024-01-03T03:57:47.121Z,16.67
2024-01-03T04:00:14.401Z,18.38
2024-01-03T04:02:41.188Z,17.63
2024-01-03T04:05:08.438Z,18.60
2024-01-03T04:07:35.147Z,20.70
2024-01-03T04:10:01.989Z,13.05
2024-01-03T04:12:28.817Z,15.50
2024-01-03T04:14:55.806Z,13.32
2024-01-03T04:17:22.753Z,11.52
2024-01-03T04:19:49.710Z,10.65
2024-01-03T04:22:16.794Z,12.57
2024-01-03T04:24:43.570Z,12.30
2024-01-03T04:27:10.586Z,11.68
2024-01-03T04:29:37.359Z,13.15
2024-01-03T04:32:07.819Z,14.05
2024-01-03T04:34:34.822Z,13.05
2024-01-03T04:37:01.567Z,14.25
2024-01-03T04:39:28.552Z,19.45
2024-01-03T04:41:55.432Z,17.52
2024-01-03T04:44:22.186Z,13.77
2024-01-03T04:46:48.978Z,13.75
2024-01-03T04:49:15.875Z,16.70
2024-01-03T04:51:42.736Z,13.88
2024-01-03T04:54:09.458Z,15.00
2024-01-03T04:56:36.874Z,10.98
2024-01-03T04:59:04.675Z,11.07
2024-01-03T05:01:31.378Z,10.25
2024-01-03T05:03:58.242Z,10.73
2024-01-03T05:06:25.333Z,11.75
2024-01-03T05:08:52.163Z,11.18
2024-01-03T05:11:18.986Z,12.07
2024-01-03T05:13:45.839Z,11.85
2024-01-03T05:16:12.708Z,11.85
2024-01-03T05:18:39.625Z,11.43
2024-01-03T05:21:09.372Z,11.02
2024-01-03T05:23:36.155Z,10.57
2024-01-03T05:26:02.880Z,12.82
2024-01-03T05:28:29.854Z,10.40
2024-01-03T05:30:56.648Z,10.93
2024-01-03T05:33:23.812Z,11.07
2024-01-03T05:35:51.170Z,11.27
2024-01-03T05:38:19.069Z,10.63
2024-01-03T05:40:46.046Z,9.10
2024-01-03T05:43:14.217Z,10.25
2024-01-03T05:45:41.067Z,9.65
2024-01-03T05:48:08.352Z,11.55
2024-01-03T05:50:35.513Z,10.02
2024-01-03T05:53:02.290Z,10.32
2024-01-03T05:55:29.038Z,9.45
2024-01-03T05:57:55.836Z,9.15
2024-01-03T06:00:23.154Z,9.38
2024-01-03T06:02:49.950Z,10.55
2024-01-03T06:05:19.756Z,10.20
2024-01-03T06:07:46.639Z,11.52
2024-01-03T06:10:13.553Z,10.77
2024-01-03T06:12:43.282Z,10.98
2024-01-03T06:15:10.314Z,11.50
2024-01-03T06:17:37.743Z,11.98
2024-01-03T06:20:05.917Z,12.15
2024-01-03T06:22:32.760Z,11.15
2024-01-03T06:24:59.548Z,11.43
2024-01-03T06:27:26.313Z,11.80
2024-01-03T06:29:53.234Z,12.35
2024-01-03T06:32:20.192Z,12.20
2024-01-03T06:34:47.261Z,14.13
2024-01-03T06:37:14.017Z,18.08
2024-01-03T06:39:40.737Z,13.57
2024-01-03T06:42:07.484Z,14.15
2024-01-03T06:44:34.390Z,17.13
2024-01-03T06:47:01.079Z,14.45
2024-01-03T06:49:27.918Z,15.63
2024-01-03T06:51:54.770Z,20.42
2024-01-03T06:54:21.524Z,30.25
2024-01-03T06:56:48.396Z,53.03
2024-01-03T06:59:15.148Z,36.72
2024-01-03T07:01:41.865Z,24.05
2024-01-03T07:04:08.666Z,21.92
2024-01-03T07:06:35.563Z,20.05
2024-01-03T07:09:02.532Z,22.63
2024-01-03T07:11:29.890Z,39.97
2024-01-03T07:13:56.721Z,43.85
2024-01-03T07:16:23.503Z,49.83
2024-01-03T07:18:50.544Z,41.67
2024-01-03T07:21:17.365Z,27.95
2024-01-03T07:23:44.286Z,31.45
2024-01-03T07:26:11.136Z,29.05
2024-01-03T07:28:38.356Z,27.30
2024-01-03T07:31:05.372Z,27.08
2024-01-03T07:33:32.326Z,21.63
2024-01-03T07:35:59.487Z,19.75
2024-01-03T07:38:26.275Z,19.05
2024-01-03T07:40:53.199Z,19.00
2024-01-03T07:43:19.886Z,20.90
2024-01-03T07:45:46.631Z,17.52
2024-01-03T07:48:13.898Z,31.30
2024-01-03T07:50:41.226Z,22.35
2024-01-03T07:53:08.689Z,19.58
2024-01-03T07:55:35.423Z,44.80
2024-01-03T07:58:02.611Z,28.10
2024-01-03T08:00:31.698Z,20.85
2024-01-03T08:02:58.991Z,21.52
2024-01-03T08:05:26.190Z,23.65
2024-01-03T08:07:53.064Z,25.27
2024-01-03T08:10:19.771Z,29.33
2024-01-03T08:12:46.610Z,31.90
2024-01-03T08:15:14.149Z,32.30
2024-01-03T08:17:41.007Z,34.70
2024-01-03T08:20:09.862Z,32.33
2024-01-03T08:22:37.330Z,29.02
2024-01-03T08:25:04.346Z,31.73
2024-01-03T08:27:33.650Z,36.13
2024-01-03T08:30:00.656Z,34.35
2024-01-03T08:32:27.725Z,40.75
2024-01-03T08:34:54.632Z,49.35
2024-01-03T08:37:23.863Z,39.60
2024-01-03T08:39:51.131Z,35.47
2024-01-03T08:42:17.942Z,23.77
2024-01-03T08:44:44.751Z,22.35
2024-01-03T08:47:14.816Z,19.08
2024-01-03T08:49:44.053Z,20.38
2024-01-03T08:52:11.597Z,18.98
2024-01-03T08:54:38.431Z,20.27
2024-01-03T08:57:05.551Z,24.30
2024-01-03T08:59:32.424Z,49.08
2024-01-03T09:01:59.254Z,21.30
2024-01-03T09:04:25.949Z,25.08
2024-01-03T09:06:53.814Z,29.30
2024-01-03T09:09:20.694Z,21.17
2024-01-03T09:11:47.466Z,22.25
2024-01-03T09:14:14.680Z,29.23
2024-01-03T09:16:41.562Z,28.38
2024-01-03T09:19:10.329Z,26.55
2024-01-03T09:21:44.411Z,25.67
2024-01-03T09:24:11.361Z,33.10
2024-01-03T09:26:38.449Z,29.92
2024-01-03T09:29:06.944Z,24.38
2024-01-03T09:31:34.763Z,17.17
2024-01-03T09:34:01.701Z,16.90
2024-01-03T09:36:29.073Z,31.58
2024-01-03T09:38:56.425Z,38.78
2024-01-03T09:41:24.555Z,47.88
2024-01-03T09:43:54.441Z,50.47
2024-01-03T09:46:23.424Z,58.17
2024-01-03T09:48:51.087Z,61.10
2024-01-03T09:51:20.402Z,82.57
2024-01-03T09:53:58.048Z,74.68
2024-01-03T09:56:24.985Z,56.30
2024-01-03T09:58:51.840Z,47.78
2024-01-03T10:01:21.638Z,45.80
2024-01-03T10:03:48.619Z,52.00
2024-01-03T10:06:18.843Z,40.22
2024-01-03T10:09:02.057Z,28.20
2024-01-03T10:11:29.568Z,31.08
2024-01-03T10:13:57.854Z,33.22
2024-01-03T10:16:26.807Z,29.88
2024-01-03T10:19:21.691Z,30.33
2024-01-03T10:21:53.462Z,28.33
2024-01-03T10:24:23.505Z,22.70
2024-01-03T10:26:51.014Z,23.42
2024-01-03T10:29:20.589Z,26.02
2024-01-03T10:31:48.663Z,22.02
2024-01-03T10:34:22.486Z,23.00
2024-01-03T10:36:50.945Z,21.02
2024-01-03T10:39:20.398Z,20.77
2024-01-03T10:41:49.247Z,23.13
2024-01-03T10:44:19.002Z,22.58
2024-01-03T10:46:46.535Z,21.58
2024-01-03T10:49:15.590Z,25.67
2024-01-03T10:51:49.748Z,30.40
2024-01-03T10:54:18.735Z,24.15
2024-01-03T10:56:50.138Z,24.08
2024-01-03T10:59:18.725Z,25.23
2024-01-03T11:01:56.465Z,32.45
2024-01-03T11:04:48.991Z,27.58
2024-01-03T11:07:34.597Z,33.92
2024-01-03T11:10:01.423Z,38.65
2024-01-03T11:12:30.295Z,38.97
2024-01-03T11:15:37.523Z,40.03
2024-01-03T11:18:10.130Z,41.83
2024-01-03T11:20:37.279Z,43.22
2024-01-03T11:23:06.253Z,43.50
2024-01-03T11:25:52.921Z,44.20
2024-01-03T11:28:37.981Z,46.80
2024-01-03T11:31:08.510Z,54.13
2024-01-03T11:33:44.717Z,55.88
2024-01-03T11:36:11.682Z,51.17
2024-01-03T11:38:45.645Z,44.13
2024-01-03T11:41:17.197Z,43.58
2024-01-03T11:43:44.073Z,45.88
2024-01-03T11:46:12.794Z,52.85
2024-01-03T11:48:43.635Z,53.28
2024-01-03T11:51:25.336Z,55.28
2024-01-03T11:53:53.178Z,51.78
2024-01-03T11:56:30.262Z,53.72
2024-01-03T11:58:59.039Z,50.10
2024-01-03T12:01:26.042Z,50.13
2024-01-03T12:04:14.649Z,51.72
2024-01-03T12:06:41.809Z,54.15
2024-01-03T12:09:09.251Z,65.30
2024-01-03T12:11:37.133Z,65.18
2024-01-03T12:14:03.951Z,76.30
2024-01-03T12:16:30.670Z,80.72
2024-01-03T12:18:57.672Z,78.28
2024-01-03T12:21:24.633Z,79.50
2024-01-03T12:24:03.087Z,78.35
2024-01-03T12:26:30.535Z,72.55
2024-01-03T12:29:04.938Z,64.60
2024-01-03T12:31:31.869Z,56.65
2024-01-03T12:34:06.431Z,50.42
2024-01-03T12:36:34.004Z,39.35
2024-01-03T12:39:01.291Z,40.00
2024-01-03T12:41:28.153Z,44.17
2024-01-03T12:43:54.966Z,33.58
2024-01-03T12:46:21.838Z,52.03
2024-01-03T12:48:48.742Z,37.80
2024-01-03T12:51:15.691Z,43.75
2024-01-03T12:53:42.624Z,30.67
2024-01-03T12:56:09.369Z,42.47
2024-01-03T12:58:36.104Z,27.17
2024-01-03T13:01:03.411Z,27.38
2024-01-03T13:03:30.275Z,25.27
2024-01-03T13:05:57.086Z,23.08
2024-01-03T13:08:23.913Z,33.67
2024-01-03T13:10:50.824Z,46.80
2024-01-03T13:13:17.746Z,29.02
2024-01-03T13:15:47.532Z,26.73
2024-01-03T13:18:14.775Z,29.00
2024-01-03T13:20:41.861Z,33.60
2024-01-03T13:23:08.979Z,44.53
2024-01-03T13:25:36.079Z,43.38
2024-01-03T13:28:02.848Z,48.45
2024-01-03T13:30:30.405Z,52.42
2024-01-03T13:32:57.582Z,53.17
2024-01-03T13:35:24.905Z,32.53
2024-01-03T13:37:51.854Z,31.85
2024-01-03T13:40:20.074Z,24.98
2024-01-03T13:42:46.853Z,19.23
2024-01-03T13:45:13.734Z,20.05
2024-01-03T13:47:40.613Z,11.95
2024-01-03T13:50:07.794Z,13.35
2024-01-03T13:52:35.243Z,11.93
2024-01-03T13:55:02.436Z,12.55
2024-01-03T13:57:29.170Z,12.50
2024-01-03T13:59:56.010Z,13.18
2024-01-03T14:02:22.729Z,16.42
2024-01-03T14:04:49.455Z,13.60
2024-01-03T14:07:16.269Z,16.85
2024-01-03T14:09:43.065Z,20.35
2024-01-03T14:12:10.580Z,21.90
2024-01-03T14:14:37.754Z,29.88
2024-01-03T14:17:05.737Z,29.65
2024-01-03T14:19:32.583Z,42.22
2024-01-03T14:22:01.298Z,55.22
2024-01-03T14:24:28.099Z,49.15
2024-01-03T14:26:55.171Z,45.75
2024-01-03T14:29:22.844Z,48.28
2024-01-03T14:31:49.556Z,43.67
2024-01-03T14:34:16.448Z,35.67
2024-01-03T14:36:43.325Z,35.85
2024-01-03T14:39:10.293Z,36.50
2024-01-03T14:41:37.901Z,41.60
2024-01-03T14:44:10.808Z,42.40
2024-01-03T14:46:37.594Z,40.67
2024-01-03T14:49:05.039Z,30.83
2024-01-03T14:51:38.561Z,36.58
2024-01-03T14:54:05.381Z,41.70
2024-01-03T14:56:33.552Z,43.90
2024-01-03T14:59:00.507Z,49.03
2024-01-03T15:01:29.011Z,59.92
2024-01-03T15:03:55.927Z,74.82
2024-01-03T15:06:23.400Z,57.97
2024-01-03T15:08:50.695Z,60.40
2024-01-03T15:11:17.479Z,47.15
2024-01-03T15:13:46.136Z,72.57
2024-01-03T15:16:13.160Z,59.55
2024-01-03T15:18:39.975Z,57.85
2024-01-03T15:21:06.837Z,55.38
2024-01-03T15:23:33.640Z,46.53
2024-01-03T15:26:02.066Z,62.17
2024-01-03T15:28:30.372Z,43.63
2024-01-03T15:30:58.427Z,40.40
2024-01-03T15:33:32.441Z,73.65
2024-01-03T15:35:59.462Z,79.88
2024-01-03T15:38:29.252Z,77.18
2024-01-03T15:40:55.991Z,54.45
2024-01-03T15:43:22.763Z,58.30
2024-01-03T15:45:50.472Z,35.47
2024-01-03T15:48:17.405Z,61.83
2024-01-03T15:50:44.399Z,72.18
2024-01-03T15:53:12.646Z,75.75
2024-01-03T15:55:39.721Z,93.18
2024-01-03T15:58:06.760Z,70.95
2024-01-03T16:00:34.394Z,54.85
2024-01-03T16:03:02.530Z,42.03
2024-01-03T16:05:30.564Z,51.58
2024-01-03T16:07:57.595Z,25.30
2024-01-03T16:10:24.641Z,38.25
2024-01-03T16:12:51.359Z,33.47
2024-01-03T16:15:18.452Z,28.80
2024-01-03T16:17:45.520Z,38.50
2024-01-03T16:20:14.812Z,28.42
2024-01-03T16:22:41.638Z,41.30
2024-01-03T16:25:12.551Z,26.67
2024-01-03T16:27:40.062Z,31.98
2024-01-03T16:30:07.401Z,18.58
2024-01-03T16:32:34.569Z,25.85
2024-01-03T16:35:01.538Z,28.25
2024-01-03T16:37:32.709Z,28.58
2024-01-03T16:40:00.375Z,32.40
2024-01-03T16:42:27.119Z,17.80
2024-01-03T16:44:55.017Z,13.50
2024-01-03T16:47:21.819Z,20.20
2024-01-03T16:49:48.758Z,27.35
2024-01-03T16:52:22.185Z,32.80
2024-01-03T16:54:48.939Z,33.63
2024-01-03T16:57:15.737Z,30.08
2024-01-03T16:59:43.243Z,29.88
2024-01-03T17:02:11.744Z,26.05
2024-01-03T17:04:38.480Z,28.70
2024-01-03T17:07:05.466Z,27.30
2024-01-03T17:09:32.906Z,21.17
2024-01-03T17:11:59.778Z,23.48
2024-01-03T17:14:26.557Z,14.75
2024-01-03T17:16:53.331Z,12.05
2024-01-03T17:19:21.280Z,31.63
2024-01-03T17:21:49.187Z,35.85
2024-01-03T17:24:15.992Z,44.30
2024-01-03T17:26:43.664Z,51.35
2024-01-03T17:29:11.232Z,50.80
2024-01-03T17:31:38.096Z,52.15
2024-01-03T17:34:06.791Z,59.17
2024-01-03T17:36:34.389Z,101.45
2024-01-03T17:39:01.173Z,121.38
2024-01-03T17:41:28.346Z,121.47
2024-01-03T17:43:56.611Z,118.82
2024-01-03T17:46:23.628Z,115.22
2024-01-03T17:48:52.752Z,106.55
2024-01-03T17:51:21.574Z,104.75
2024-01-03T17:53:52.546Z,110.97
2024-01-03T17:56:24.654Z,109.20
2024-01-03T17:58:52.307Z,111.43
2024-01-03T18:01:20.011Z,113.32
2024-01-03T18:03:47.230Z,107.38
2024-01-03T18:06:15.338Z,106.53
2024-01-03T18:08:42.300Z,98.63
2024-01-03T18:11:09.110Z,98.38
2024-01-03T18:13:36.546Z,89.72
2024-01-03T18:16:03.552Z,94.80
2024-01-03T18:18:30.530Z,111.15
2024-01-03T18:20:58.497Z,105.47
2024-01-03T18:23:25.618Z,104.68
2024-01-03T18:25:52.639Z,107.03
2024-01-03T18:28:19.451Z,113.70
2024-01-03T18:30:46.711Z,105.13
2024-01-03T18:33:13.990Z,110.55
2024-01-03T18:35:42.398Z,127.22
2024-01-03T18:38:09.587Z,100.90
2024-01-03T18:40:38.736Z,87.10
2024-01-03T18:43:07.265Z,83.60
2024-01-03T18:45:34.234Z,89.72
2024-01-03T18:48:02.223Z,81.47
2024-01-03T18:50:30.424Z,76.47
2024-01-03T18:52:57.109Z,95.63
2024-01-03T18:55:24.535Z,67.70
2024-01-03T18:57:58.058Z,64.03
2024-01-03T19:00:26.533Z,61.85
2024-01-03T19:02:53.288Z,50.25
2024-01-03T19:05:20.572Z,35.10
2024-01-03T19:07:47.382Z,42.42
2024-01-03T19:10:16.831Z,45.17
2024-01-03T19:12:43.530Z,29.48
2024-01-03T19:15:10.806Z,33.70
2024-01-03T19:17:38.138Z,31.08
2024-01-03T19:20:05.442Z,31.77
2024-01-03T19:22:37.291Z,23.70
2024-01-03T19:25:04.758Z,28.20
2024-01-03T19:27:32.602Z,25.20
2024-01-03T19:30:02.627Z,20.95
2024-01-03T19:32:30.132Z,22.52
2024-01-03T19:34:56.935Z,22.73
2024-01-03T19:37:24.506Z,20.67
2024-01-03T19:39:51.436Z,25.55
2024-01-03T19:42:18.279Z,24.65
2024-01-03T19:44:45.266Z,28.38
2024-01-03T19:47:12.340Z,30.48
2024-01-03T19:49:39.290Z,28.00
2024-01-03T19:52:06.312Z,25.10
2024-01-03T19:54:33.092Z,22.50
2024-01-03T19:56:59.881Z,20.17
2024-01-03T19:59:27.507Z,15.23
2024-01-03T20:01:54.315Z,13.82
2024-01-03T20:04:21.200Z,12.88
2024-01-03T20:06:48.272Z,14.50
2024-01-03T20:09:15.676Z,14.98
2024-01-03T20:11:46.443Z,15.00
2024-01-03T20:14:13.654Z,19.60
2024-01-03T20:16:43.236Z,23.40
2024-01-03T20:19:11.033Z,24.38
2024-01-03T20:21:43.932Z,23.45
2024-01-03T20:24:11.128Z,25.10
2024-01-03T20:26:40.642Z,22.48
2024-01-03T20:29:11.312Z,21.75
2024-01-03T20:31:38.324Z,19.58
2024-01-03T20:34:06.381Z,29.38
2024-01-03T20:36:34.616Z,32.72
2024-01-03T20:39:01.987Z,24.98
2024-01-03T20:41:29.486Z,18.42
2024-01-03T20:43:56.549Z,13.63
2024-01-03T20:46:23.359Z,16.80
2024-01-03T20:48:50.846Z,17.63
2024-01-03T20:51:19.022Z,16.50
2024-01-03T20:53:46.348Z,14.75
2024-01-03T20:56:13.698Z,17.60
2024-01-03T20:58:40.684Z,17.00
2024-01-03T21:01:08.026Z,16.20
2024-01-03T21:03:39.418Z,13.98
2024-01-03T21:06:10.394Z,15.90
2024-01-03T21:08:38.241Z,19.30
2024-01-03T21:11:08.430Z,22.35
2024-01-03T21:13:37.154Z,27.70
2024-01-03T21:16:04.040Z,28.25
2024-01-03T21:18:31.808Z,25.55
2024-01-03T21:20:58.688Z,20.25
2024-01-03T21:23:25.466Z,18.33
2024-01-03T21:25:52.141Z,17.15
2024-01-03T21:28:19.041Z,23.38
2024-01-03T21:30:46.226Z,16.33
2024-01-03T21:33:14.689Z,19.30
2024-01-03T21:35:42.909Z,24.25
2024-01-03T21:38:10.281Z,29.25
2024-01-03T21:40:37.799Z,39.13
2024-01-03T21:43:05.014Z,37.63
2024-01-03T21:45:32.145Z,37.35
2024-01-03T21:47:59.225Z,23.70
2024-01-03T21:50:26.056Z,21.77
2024-01-03T21:52:52.848Z,20.33
2024-01-03T21:55:19.608Z,22.10
2024-01-03T21:57:46.343Z,26.75
2024-01-03T22:00:14.453Z,27.58
2024-01-03T22:02:41.315Z,34.67
2024-01-03T22:05:18.818Z,42.00
2024-01-03T22:07:46.634Z,38.50
2024-01-03T22:10:15.541Z,34.72
2024-01-03T22:12:48.597Z,40.05
2024-01-03T22:15:19.955Z,39.13
2024-01-03T22:17:47.213Z,33.17
2024-01-03T22:20:15.494Z,32.67
2024-01-03T22:22:43.193Z,23.27
2024-01-03T22:25:10.659Z,22.05
2024-01-03T22:27:38.693Z,22.88
2024-01-03T22:30:06.223Z,21.55
2024-01-03T22:32:34.396Z,22.45
2024-01-03T22:35:01.353Z,18.45
2024-01-03T22:37:28.965Z,20.63
2024-01-03T22:39:56.775Z,20.67
2024-01-03T22:42:23.857Z,17.08
2024-01-03T22:44:50.631Z,15.48
2024-01-03T22:47:17.351Z,11.50
2024-01-03T22:49:44.331Z,12.75
2024-01-03T22:52:12.526Z,14.57
2024-01-03T22:54:39.249Z,12.18
2024-01-03T22:57:06.102Z,10.65
2024-01-03T22:59:32.863Z,13.30
2024-01-03T23:01:59.817Z,14.73
2024-01-03T23:04:26.883Z,12.77
2024-01-03T23:06:53.908Z,16.48
2024-01-03T23:09:20.698Z,15.40
2024-01-03T23:11:49.162Z,13.90
2024-01-03T23:14:16.168Z,15.63
2024-01-03T23:16:42.974Z,13.57
2024-01-03T23:19:10.027Z,11.10
2024-01-03T23:21:36.965Z,13.77
2024-01-03T23:24:04.023Z,13.00
2024-01-03T23:26:31.032Z,15.93
2024-01-03T23:28:57.858Z,15.73
2024-01-03T23:31:24.667Z,14.27
2024-01-03T23:33:51.622Z,13.93
2024-01-03T23:36:18.497Z,13.75
2024-01-03T23:38:45.266Z,18.05
2024-01-03T23:41:19.121Z,20.20
2024-01-03T23:43:47.797Z,21.60
2024-01-03T23:46:15.678Z,15.70
2024-01-03T23:48:43.059Z,14.57
2024-01-03T23:51:10.018Z,33.72
2024-01-03T23:53:36.871Z,19.08
2024-01-03T23:56:04.047Z,15.32
2024-01-03T23:58:30.815Z,15.32
